createdAt,value
2018-02-09T00:00:03.942Z,-4.60
2018-02-09T00:02:31.397Z,-4.70
2018-02-09T00:04:58.851Z,-4.80
2018-02-09T00:07:26.303Z,-4.80
2018-02-09T00:09:53.765Z,-4.70
2018-02-09T00:12:21.325Z,-4.80
2018-02-09T00:14:48.781Z,-4.90
2018-02-09T00:17:16.229Z,-4.90
2018-02-09T00:19:43.794Z,-4.90
2018-02-09T00:22:13.030Z,-5.00
2018-02-09T00:24:41.374Z,-5.00
2018-02-09T00:27:08.931Z,-5.00
2018-02-09T00:29:36.386Z,-5.00
2018-02-09T00:32:03.834Z,-5.00
2018-02-09T00:34:31.290Z,-5.00
2018-02-09T00:36:58.749Z,-5.00
2018-02-09T00:39:26.373Z,-5.00
2018-02-09T00:41:53.814Z,-5.00
2018-02-09T00:44:22.042Z,-4.80
2018-02-09T00:46:49.496Z,-4.90
2018-02-09T00:49:16.949Z,-4.80
2018-02-09T00:51:44.398Z,-4.90
2018-02-09T00:54:11.851Z,-4.90
2018-02-09T00:56:39.330Z,-4.80
2018-02-09T00:59:06.887Z,-4.90
2018-02-09T01:01:34.648Z,-4.90
2018-02-09T01:04:02.102Z,-4.90
2018-02-09T01:06:29.557Z,-4.80
2018-02-09T01:08:57.129Z,-4.80
2018-02-09T01:11:24.582Z,-4.80
2018-02-09T01:13:52.142Z,-4.80
2018-02-09T01:16:19.897Z,-4.80
2018-02-09T01:18:47.357Z,-4.80
2018-02-09T01:21:14.803Z,-4.70
2018-02-09T01:23:42.263Z,-4.80
2018-02-09T01:26:09.735Z,-4.80
2018-02-09T01:28:37.189Z,-4.90
2018-02-09T01:31:04.652Z,-4.90
2018-02-09T01:33:32.097Z,-4.90
2018-02-09T01:35:59.555Z,-4.90
2018-02-09T01:38:27.119Z,-4.90
2018-02-09T01:40:54.566Z,-5.00
2018-02-09T01:43:22.426Z,-5.00
2018-02-09T01:45:49.877Z,-5.00
2018-02-09T01:48:17.355Z,-5.00
2018-02-09T01:50:44.814Z,-5.00
2018-02-09T01:53:12.371Z,-4.90
2018-02-09T01:55:39.942Z,-4.90
2018-02-09T01:58:07.382Z,-4.80
2018-02-09T02:00:34.924Z,-4.80
2018-02-09T02:03:02.406Z,-4.90
2018-02-09T02:05:29.962Z,-5.00
2018-02-09T02:07:57.522Z,-5.00
2018-02-09T02:10:25.080Z,-5.10
2018-02-09T02:12:52.539Z,-5.10
2018-02-09T02:15:19.999Z,-5.20
2018-02-09T02:17:47.646Z,-5.20
2018-02-09T02:20:15.111Z,-5.10
2018-02-09T02:22:42.666Z,-5.10
2018-02-09T02:25:10.122Z,-5.10
2018-02-09T02:27:37.930Z,-5.10
2018-02-09T02:30:06.174Z,-5.10
2018-02-09T02:32:33.623Z,-5.10
2018-02-09T02:35:01.083Z,-5.20
2018-02-09T02:37:28.531Z,-5.20
2018-02-09T02:39:56.093Z,-5.30
2018-02-09T02:42:23.538Z,-5.20
2018-02-09T02:44:51.732Z,-5.20
2018-02-09T02:47:19.174Z,-5.20
2018-02-09T02:49:46.950Z,-5.30
2018-02-09T02:52:14.399Z,-5.30
2018-02-09T02:54:41.953Z,-5.20
2018-02-09T02:57:09.412Z,-5.20
2018-02-09T02:59:36.970Z,-5.20
2018-02-09T03:02:04.428Z,-5.20
2018-02-09T03:04:31.999Z,-5.30
2018-02-09T03:06:59.549Z,-5.30
2018-02-09T03:09:27.009Z,-5.30
2018-02-09T03:11:54.670Z,-5.30
2018-02-09T03:14:22.230Z,-5.30
2018-02-09T03:16:49.792Z,-5.30
2018-02-09T03:19:18.012Z,-5.30
2018-02-09T03:21:46.240Z,-5.30
2018-02-09T03:24:13.796Z,-5.30
2018-02-09T03:26:41.238Z,-5.30
2018-02-09T03:29:08.707Z,-5.30
2018-02-09T03:31:36.169Z,-5.30
2018-02-09T03:34:03.727Z,-5.30
2018-02-09T03:36:31.286Z,-5.30
2018-02-09T03:38:58.847Z,-5.40
2018-02-09T03:41:26.402Z,-5.40
2018-02-09T03:43:53.857Z,-5.40
2018-02-09T03:46:21.318Z,-5.40
2018-02-09T03:48:48.775Z,-5.50
2018-02-09T03:51:16.329Z,-5.50
2018-02-09T03:53:43.802Z,-5.50
2018-02-09T03:56:11.302Z,-5.40
2018-02-09T03:58:38.706Z,-5.40
2018-02-09T04:01:06.168Z,-5.40
2018-02-09T04:03:33.702Z,-5.30
2018-02-09T04:06:01.171Z,-5.20
2018-02-09T04:08:28.633Z,-5.20
2018-02-09T04:10:56.202Z,-5.30
2018-02-09T04:13:23.746Z,-5.20
2018-02-09T04:15:51.200Z,-5.30
2018-02-09T04:18:18.650Z,-5.30
2018-02-09T04:20:46.124Z,-5.30
2018-02-09T04:23:13.690Z,-5.30
2018-02-09T04:25:41.152Z,-5.30
2018-02-09T04:28:09.409Z,-5.30
2018-02-09T04:30:37.527Z,-5.30
2018-02-09T04:33:05.731Z,-5.40
2018-02-09T04:35:33.222Z,-5.40
2018-02-09T04:38:00.674Z,-5.40
2018-02-09T04:40:28.237Z,-5.40
2018-02-09T04:42:55.790Z,-5.50
2018-02-09T04:45:23.358Z,-5.50
2018-02-09T04:47:51.050Z,-5.60
2018-02-09T04:50:19.282Z,-5.50
2018-02-09T04:52:46.731Z,-5.50
2018-02-09T04:55:14.278Z,-5.60
2018-02-09T04:57:41.758Z,-5.60
2018-02-09T05:00:09.214Z,-5.60
2018-02-09T05:02:36.779Z,-5.70
2018-02-09T05:05:04.247Z,-5.70
2018-02-09T05:07:31.798Z,-5.60
2018-02-09T05:09:59.351Z,-5.70
2018-02-09T05:12:26.807Z,-5.60
2018-02-09T05:14:54.362Z,-5.60
2018-02-09T05:17:22.430Z,-5.50
2018-02-09T05:19:49.886Z,-5.60
2018-02-09T05:22:17.350Z,-5.50
2018-02-09T05:24:44.810Z,-5.50
2018-02-09T05:27:12.711Z,-5.50
2018-02-09T05:29:40.946Z,-5.50
2018-02-09T05:32:08.390Z,-5.60
2018-02-09T05:34:35.845Z,-5.50
2018-02-09T05:37:03.325Z,-5.60
2018-02-09T05:39:30.782Z,-5.60
2018-02-09T05:41:58.257Z,-5.60
2018-02-09T05:44:25.706Z,-5.60
2018-02-09T05:46:53.162Z,-5.60
2018-02-09T05:49:20.817Z,-5.70
2018-02-09T05:51:48.272Z,-5.70
2018-02-09T05:54:15.823Z,-5.80
2018-02-09T05:56:43.466Z,-5.80
2018-02-09T05:59:10.943Z,-5.80
2018-02-09T06:01:38.681Z,-5.80
2018-02-09T06:04:06.113Z,-5.80
2018-02-09T06:06:34.230Z,-5.80
2018-02-09T06:09:01.686Z,-5.80
2018-02-09T06:11:29.146Z,-5.80
2018-02-09T06:13:56.598Z,-5.80
2018-02-09T06:16:24.057Z,-5.70
2018-02-09T06:18:51.514Z,-5.70
2018-02-09T06:21:19.490Z,-5.80
2018-02-09T06:23:47.125Z,-5.70
2018-02-09T06:26:14.571Z,-5.70
2018-02-09T06:28:42.028Z,-5.70
2018-02-09T06:31:09.521Z,-5.70
2018-02-09T06:33:37.075Z,-5.70
2018-02-09T06:36:04.629Z,-5.60
2018-02-09T06:38:32.818Z,-5.60
2018-02-09T06:41:00.271Z,-5.60
2018-02-09T06:43:27.827Z,-5.60
2018-02-09T06:45:55.384Z,-5.60
2018-02-09T06:48:23.654Z,-5.50
2018-02-09T06:50:51.118Z,-5.50
2018-02-09T06:53:18.570Z,-5.40
2018-02-09T06:55:46.030Z,-5.40
2018-02-09T06:58:13.589Z,-5.40
2018-02-09T07:00:41.081Z,-5.40
2018-02-09T07:03:08.602Z,-5.40
2018-02-09T07:05:36.058Z,-5.40
2018-02-09T07:08:03.506Z,-5.40
2018-02-09T07:10:31.015Z,-5.40
2018-02-09T07:12:59.258Z,-5.30
2018-02-09T07:15:26.810Z,-5.30
2018-02-09T07:17:54.682Z,-5.30
2018-02-09T07:20:22.146Z,-5.30
2018-02-09T07:22:49.726Z,-4.80
2018-02-09T07:25:17.947Z,-4.70
2018-02-09T07:27:45.392Z,-4.70
2018-02-09T07:30:12.852Z,-4.70
2018-02-09T07:32:40.339Z,-4.80
2018-02-09T07:35:07.797Z,-4.80
2018-02-09T07:37:35.246Z,-4.70
2018-02-09T07:40:02.887Z,-4.70
2018-02-09T07:42:30.366Z,-4.70
2018-02-09T07:44:57.926Z,-4.60
2018-02-09T07:47:25.872Z,-4.70
2018-02-09T07:49:53.447Z,-4.70
2018-02-09T07:52:20.907Z,-4.60
2018-02-09T07:54:48.362Z,-4.60
2018-02-09T07:57:15.823Z,-4.40
2018-02-09T07:59:43.270Z,-4.40
2018-02-09T08:02:10.727Z,-4.30
2018-02-09T08:04:38.195Z,-4.20
2018-02-09T08:07:05.967Z,-4.00
2018-02-09T08:09:33.419Z,-3.90
2018-02-09T08:12:01.027Z,-3.70
2018-02-09T08:14:28.430Z,-3.40
2018-02-09T08:16:55.894Z,-3.10
2018-02-09T08:19:23.346Z,-3.00
2018-02-09T08:21:50.837Z,-3.10
2018-02-09T08:24:18.374Z,-2.80
2018-02-09T08:26:46.039Z,-2.70
2018-02-09T08:29:13.495Z,-2.40
2018-02-09T08:31:41.116Z,-2.00
2018-02-09T08:34:08.573Z,-1.80
2018-02-09T08:36:36.054Z,-1.70
2018-02-09T08:39:03.514Z,-1.40
2018-02-09T08:41:31.781Z,-1.00
2018-02-09T08:43:59.251Z,-1.40
2018-02-09T08:46:26.815Z,-1.20
2018-02-09T08:48:54.396Z,-1.80
2018-02-09T08:51:22.638Z,-1.70
2018-02-09T08:53:50.231Z,-1.70
2018-02-09T08:56:17.679Z,-1.70
2018-02-09T08:58:45.214Z,-1.50
2018-02-09T09:01:12.695Z,-1.30
2018-02-09T09:03:41.792Z,-1.10
2018-02-09T09:06:10.043Z,-1.00
2018-02-09T09:08:37.502Z,-1.00
2018-02-09T09:11:05.070Z,-0.80
2018-02-09T09:13:32.531Z,-0.80
2018-02-09T09:16:00.003Z,-0.80
2018-02-09T09:18:28.129Z,-1.10
2018-02-09T09:20:55.711Z,-0.70
2018-02-09T09:23:23.988Z,-0.30
2018-02-09T09:25:51.739Z,-0.30
2018-02-09T09:28:19.211Z,0.00
2018-02-09T09:30:46.666Z,0.40
2018-02-09T09:33:14.119Z,0.90
2018-02-09T09:35:41.579Z,1.30
2018-02-09T09:38:09.205Z,1.50
2018-02-09T09:40:36.647Z,1.70
2018-02-09T09:43:04.103Z,1.80
2018-02-09T09:45:31.566Z,2.40
2018-02-09T09:47:59.059Z,2.70
2018-02-09T09:50:26.625Z,3.00
2018-02-09T09:52:54.074Z,2.70
2018-02-09T09:55:21.534Z,3.10
2018-02-09T09:57:48.994Z,3.10
2018-02-09T10:00:16.466Z,3.10
2018-02-09T10:02:43.934Z,3.60
2018-02-09T10:05:12.188Z,3.30
2018-02-09T10:07:39.642Z,3.30
2018-02-09T10:10:07.105Z,3.90
2018-02-09T10:12:34.558Z,4.20
2018-02-09T10:15:02.014Z,4.20
2018-02-09T10:17:29.491Z,3.60
2018-02-09T10:19:56.946Z,4.20
2018-02-09T10:22:24.395Z,4.20
2018-02-09T10:24:51.852Z,4.50
2018-02-09T10:27:19.298Z,4.60
2018-02-09T10:29:46.761Z,4.60
2018-02-09T10:32:14.253Z,3.60
2018-02-09T10:34:41.727Z,3.60
2018-02-09T10:37:09.946Z,3.70
2018-02-09T10:39:37.390Z,3.70
2018-02-09T10:42:04.846Z,4.20
2018-02-09T10:44:32.325Z,4.20
2018-02-09T10:46:59.774Z,4.60
2018-02-09T10:49:27.234Z,4.20
2018-02-09T10:51:54.731Z,4.60
2018-02-09T10:54:22.927Z,4.40
2018-02-09T10:56:50.383Z,4.40
2018-02-09T10:59:17.839Z,4.80
2018-02-09T11:01:45.316Z,5.40
2018-02-09T11:04:12.742Z,5.20
2018-02-09T11:06:40.215Z,5.20
2018-02-09T11:09:07.767Z,5.90
2018-02-09T11:11:35.202Z,5.90
2018-02-09T11:14:02.658Z,5.70
2018-02-09T11:16:30.867Z,5.90
2018-02-09T11:18:58.330Z,5.90
2018-02-09T11:21:25.765Z,5.50
2018-02-09T11:23:53.222Z,5.30
2018-02-09T11:26:20.661Z,5.40
2018-02-09T11:28:48.138Z,5.80
2018-02-09T11:31:16.191Z,6.20
2018-02-09T11:33:43.691Z,6.10
2018-02-09T11:36:11.193Z,6.10
2018-02-09T11:38:39.111Z,6.40
2018-02-09T11:41:06.561Z,7.20
2018-02-09T11:43:34.060Z,7.10
2018-02-09T11:46:01.768Z,7.70
2018-02-09T11:48:29.774Z,7.90
2018-02-09T11:50:57.406Z,7.50
2018-02-09T11:53:24.904Z,6.60
2018-02-09T11:55:52.441Z,5.90
2018-02-09T11:58:19.922Z,6.20
2018-02-09T12:00:47.368Z,6.60
2018-02-09T12:03:14.887Z,6.40
2018-02-09T12:05:42.367Z,6.20
2018-02-09T12:08:09.823Z,6.70
2018-02-09T12:10:37.278Z,6.90
2018-02-09T12:13:04.735Z,6.30
2018-02-09T12:15:32.199Z,6.50
2018-02-09T12:17:59.687Z,6.60
2018-02-09T12:20:27.964Z,7.00
2018-02-09T12:22:55.408Z,7.00
2018-02-09T12:25:22.931Z,7.20
2018-02-09T12:27:50.386Z,6.70
2018-02-09T12:30:17.963Z,6.40
2018-02-09T12:32:45.418Z,7.00
2018-02-09T12:35:12.987Z,7.30
2018-02-09T12:37:40.435Z,7.60
2018-02-09T12:40:07.881Z,8.20
2018-02-09T12:42:35.334Z,8.20
2018-02-09T12:45:02.786Z,8.10
2018-02-09T12:47:30.245Z,8.00
2018-02-09T12:49:57.723Z,8.40
2018-02-09T12:52:25.189Z,8.70
2018-02-09T12:54:53.013Z,8.30
2018-02-09T12:57:20.449Z,8.30
2018-02-09T12:59:47.924Z,8.30
2018-02-09T13:02:15.360Z,8.40
2018-02-09T13:04:43.695Z,8.70
2018-02-09T13:07:11.143Z,8.70
2018-02-09T13:09:38.595Z,8.70
2018-02-09T13:12:06.074Z,8.40
2018-02-09T13:14:45.590Z,8.20
2018-02-09T13:17:13.036Z,8.50
2018-02-09T13:19:40.510Z,8.50
2018-02-09T13:22:07.967Z,8.80
2018-02-09T13:24:36.238Z,8.50
2018-02-09T13:27:03.699Z,8.70
2018-02-09T13:29:31.180Z,9.60
2018-02-09T13:31:58.714Z,8.70
2018-02-09T13:34:26.170Z,8.50
2018-02-09T13:40:02.426Z,8.50
2018-02-09T13:42:29.902Z,7.80
2018-02-09T13:44:57.354Z,7.70
2018-02-09T13:47:24.806Z,8.00
2018-02-09T13:49:52.264Z,8.40
2018-02-09T13:52:19.765Z,7.90
2018-02-09T13:54:47.206Z,7.10
2018-02-09T13:57:14.681Z,6.50
2018-02-09T13:59:42.209Z,6.20
2018-02-09T14:02:09.654Z,5.50
2018-02-09T14:04:37.114Z,5.00
2018-02-09T14:07:04.586Z,5.00
2018-02-09T14:09:32.091Z,4.70
2018-02-09T14:11:59.550Z,4.40
2018-02-09T14:14:27.047Z,4.20
2018-02-09T14:16:54.496Z,4.00
2018-02-09T14:19:22.378Z,3.90
2018-02-09T14:21:49.835Z,3.90
2018-02-09T14:24:17.282Z,3.80
2018-02-09T14:26:44.761Z,3.70
2018-02-09T14:29:12.307Z,3.60
2018-02-09T14:31:39.777Z,3.50
2018-02-09T14:34:07.317Z,3.50
2018-02-09T14:36:34.778Z,3.30
2018-02-09T14:39:02.330Z,3.20
2018-02-09T14:41:29.782Z,3.30
2018-02-09T14:43:57.351Z,3.30
2018-02-09T14:46:24.819Z,3.30
2018-02-09T14:48:52.279Z,3.30
2018-02-09T14:51:19.751Z,3.10
2018-02-09T14:53:47.970Z,3.00
2018-02-09T14:56:15.457Z,3.00
2018-02-09T14:58:43.110Z,3.00
2018-02-09T15:01:10.691Z,3.00
2018-02-09T15:03:38.142Z,3.00
2018-02-09T15:06:05.606Z,3.10
2018-02-09T15:08:33.120Z,3.00
2018-02-09T15:11:00.699Z,3.00
2018-02-09T15:13:28.157Z,2.80
2018-02-09T15:15:55.714Z,2.80
2018-02-09T15:18:23.170Z,2.70
2018-02-09T15:20:50.635Z,2.70
2018-02-09T15:23:18.086Z,2.80
2018-02-09T15:25:45.550Z,2.60
2018-02-09T15:28:12.998Z,2.60
2018-02-09T15:30:40.458Z,2.60
2018-02-09T15:33:07.921Z,2.40
2018-02-09T15:35:35.478Z,2.50
2018-02-09T15:38:03.035Z,2.50
2018-02-09T15:40:30.501Z,2.50
2018-02-09T15:42:57.976Z,2.30
2018-02-09T15:45:26.185Z,2.20
2018-02-09T15:47:53.661Z,2.20
2018-02-09T15:50:21.153Z,2.20
2018-02-09T15:52:48.594Z,2.20
2018-02-09T15:55:16.160Z,2.20
2018-02-09T15:57:43.643Z,2.30
2018-02-09T16:00:11.167Z,2.30
2018-02-09T16:02:38.756Z,2.10
2018-02-09T16:05:08.212Z,2.10
2018-02-09T16:07:35.711Z,2.10
2018-02-09T16:10:03.165Z,2.00
2018-02-09T16:12:30.614Z,2.00
2018-02-09T16:14:58.878Z,2.00
2018-02-09T16:17:26.334Z,1.90
2018-02-09T16:19:53.807Z,1.90
2018-02-09T16:22:21.291Z,1.90
2018-02-09T16:24:49.532Z,1.80
2018-02-09T16:27:17.092Z,1.80
2018-02-09T16:29:44.548Z,1.60
2018-02-09T16:32:11.994Z,1.60
2018-02-09T16:34:39.553Z,1.50
2018-02-09T16:37:07.006Z,1.40
2018-02-09T16:39:34.466Z,1.30
2018-02-09T16:42:02.031Z,1.30
2018-02-09T16:44:30.318Z,1.20
2018-02-09T16:46:57.866Z,1.10
2018-02-09T16:49:26.250Z,1.00
2018-02-09T16:51:53.730Z,0.90
2018-02-09T16:54:21.198Z,0.90
2018-02-09T16:56:48.830Z,0.80
2018-02-09T16:59:16.279Z,0.70
2018-02-09T17:01:43.786Z,0.70
2018-02-09T17:04:11.999Z,0.60
2018-02-09T17:06:39.459Z,0.60
2018-02-09T17:09:07.743Z,0.50
2018-02-09T17:11:35.202Z,0.50
2018-02-09T17:14:02.670Z,0.50
2018-02-09T17:16:30.122Z,0.40
2018-02-09T17:18:57.574Z,0.40
2018-02-09T17:21:25.152Z,0.40
2018-02-09T17:23:52.685Z,0.40
2018-02-09T17:26:20.243Z,0.40
2018-02-09T17:28:47.693Z,0.40
2018-02-09T17:31:15.163Z,0.30
2018-02-09T17:33:42.606Z,0.40
2018-02-09T17:36:10.097Z,0.40
2018-02-09T17:38:37.645Z,0.40
2018-02-09T17:41:05.186Z,0.40
2018-02-09T17:43:32.729Z,0.40
2018-02-09T17:46:00.186Z,0.40
2018-02-09T17:48:27.639Z,0.40
2018-02-09T17:50:55.103Z,0.40
2018-02-09T17:53:23.702Z,0.40
2018-02-09T17:55:51.207Z,0.40
2018-02-09T17:58:18.731Z,0.30
2018-02-09T18:00:46.190Z,0.30
2018-02-09T18:03:14.563Z,0.30
2018-02-09T18:05:42.022Z,0.20
2018-02-09T18:08:09.480Z,0.20
2018-02-09T18:10:37.031Z,0.20
2018-02-09T18:13:04.478Z,0.10
2018-02-09T18:15:31.933Z,0.10
2018-02-09T18:17:59.726Z,0.10
2018-02-09T18:20:27.990Z,0.00
2018-02-09T18:22:55.447Z,0.00
2018-02-09T18:25:22.946Z,-0.10
2018-02-09T18:27:51.178Z,-0.20
2018-02-09T18:30:19.062Z,-0.20
2018-02-09T18:32:46.513Z,-0.30
2018-02-09T18:35:14.726Z,-0.30
2018-02-09T18:37:42.241Z,-0.30
2018-02-09T18:40:09.688Z,-0.30
2018-02-09T18:42:37.153Z,-0.40
2018-02-09T18:45:04.773Z,-0.40
2018-02-09T18:47:32.332Z,-0.40
2018-02-09T18:49:59.767Z,-0.40
2018-02-09T18:52:27.286Z,-0.40
2018-02-09T18:54:54.914Z,-0.40
2018-02-09T18:57:22.397Z,-0.50
2018-02-09T18:59:49.851Z,-0.50
2018-02-09T19:02:17.306Z,-0.40
2018-02-09T19:04:44.809Z,-0.40
2018-02-09T19:07:13.019Z,-0.70
2018-02-09T19:09:40.470Z,-0.70
2018-02-09T19:12:07.943Z,-0.70
2018-02-09T19:14:35.378Z,-0.70
2018-02-09T19:17:02.829Z,-0.70
2018-02-09T19:19:31.099Z,-0.70
2018-02-09T19:21:58.602Z,-0.70
2018-02-09T19:24:26.051Z,-0.80
2018-02-09T19:26:53.606Z,-0.80
2018-02-09T19:29:21.252Z,-0.90
2018-02-09T19:31:48.686Z,-0.90
2018-02-09T19:34:16.139Z,-0.90
2018-02-09T19:36:43.593Z,-0.90
2018-02-09T19:39:11.069Z,-1.00
2018-02-09T19:41:39.554Z,-1.20
2018-02-09T19:44:07.026Z,-1.20
2018-02-09T19:46:34.502Z,-1.20
2018-02-09T19:49:01.939Z,-1.20
2018-02-09T19:51:29.431Z,-0.40
2018-02-09T19:53:56.990Z,0.40
2018-02-09T19:56:24.474Z,0.70
2018-02-09T19:58:52.771Z,0.00
2018-02-09T20:01:20.283Z,0.00
2018-02-09T20:03:47.727Z,-0.20
2018-02-09T20:06:15.182Z,-0.30
2018-02-09T20:08:42.746Z,-0.50
2018-02-09T20:11:10.206Z,-0.70
2018-02-09T20:13:37.704Z,-0.80
2018-02-09T20:16:06.026Z,-1.10
2018-02-09T20:18:33.557Z,-1.10
2018-02-09T20:21:01.001Z,-1.30
2018-02-09T20:23:28.510Z,-1.40
2018-02-09T20:25:55.966Z,-1.50
2018-02-09T20:28:23.687Z,-1.60
2018-02-09T20:30:51.171Z,-1.60
2018-02-09T20:33:18.634Z,-1.70
2018-02-09T20:35:46.087Z,-1.80
2018-02-09T20:38:13.647Z,-1.80
2018-02-09T20:40:41.203Z,-1.70
2018-02-09T20:43:08.662Z,-1.70
2018-02-09T20:45:36.218Z,-1.70
2018-02-09T20:48:03.677Z,-1.70
2018-02-09T20:50:31.163Z,-1.70
2018-02-09T20:52:58.695Z,-1.70
2018-02-09T20:55:26.982Z,-1.80
2018-02-09T20:57:54.530Z,-1.80
2018-02-09T21:00:21.985Z,-1.80
2018-02-09T21:02:49.434Z,-1.90
2018-02-09T21:05:16.890Z,-2.00
2018-02-09T21:07:44.369Z,-2.00
2018-02-09T21:10:12.579Z,-2.30
2018-02-09T21:12:40.807Z,-2.30
2018-02-09T21:15:08.259Z,-2.40
2018-02-09T21:17:35.720Z,-2.40
2018-02-09T21:20:03.169Z,-2.50
2018-02-09T21:22:30.622Z,-2.50
2018-02-09T21:24:58.086Z,-2.50
2018-02-09T21:27:25.548Z,-2.60
2018-02-09T21:29:53.023Z,-2.50
2018-02-09T21:32:20.554Z,-2.50
2018-02-09T21:34:48.131Z,-2.40
2018-02-09T21:37:15.677Z,-2.40
2018-02-09T21:39:43.243Z,-2.30
2018-02-09T21:42:10.698Z,-2.30
2018-02-09T21:44:38.151Z,-2.40
2018-02-09T21:47:06.211Z,-2.50
2018-02-09T21:49:33.674Z,-2.50
2018-02-09T21:52:01.133Z,-2.40
2018-02-09T21:54:28.612Z,-2.40
2018-02-09T21:56:56.069Z,-2.40
2018-02-09T21:59:23.530Z,-2.40
2018-02-09T22:01:50.984Z,-2.40
2018-02-09T22:04:18.455Z,-2.30
2018-02-09T22:06:45.906Z,-2.40
2018-02-09T22:09:13.562Z,-2.40
2018-02-09T22:11:41.022Z,-2.50
2018-02-09T22:14:09.258Z,-2.50
2018-02-09T22:16:36.716Z,-2.50
2018-02-09T22:19:04.190Z,-2.50
2018-02-09T22:21:31.753Z,-2.50
2018-02-09T22:23:59.211Z,-2.50
2018-02-09T22:26:26.715Z,-2.50
2018-02-09T22:28:54.936Z,-2.80
2018-02-09T22:31:22.819Z,-2.80
2018-02-09T22:33:50.274Z,-2.90
2018-02-09T22:36:17.804Z,-3.00
2018-02-09T22:38:45.373Z,-3.10
2018-02-09T22:41:12.937Z,-3.10
2018-02-09T22:43:40.588Z,-3.20
2018-02-09T22:46:08.056Z,-3.20
2018-02-09T22:48:35.519Z,-3.30
2018-02-09T22:51:02.996Z,-3.40
2018-02-09T22:53:30.449Z,-3.40
2018-02-09T22:55:57.984Z,-3.30
2018-02-09T22:58:25.458Z,-3.40
2018-02-09T23:00:52.912Z,-3.30
2018-02-09T23:03:20.447Z,-3.30
2018-02-09T23:05:47.893Z,-3.20
2018-02-09T23:08:15.349Z,-3.20
2018-02-09T23:10:42.847Z,-3.10
2018-02-09T23:13:10.378Z,-3.20
2018-02-09T23:15:37.831Z,-3.30
2018-02-09T23:18:05.296Z,-3.30
2018-02-09T23:20:32.740Z,-3.40
2018-02-09T23:23:00.195Z,-3.40
2018-02-09T23:25:27.651Z,-3.40
2018-02-09T23:27:55.115Z,-3.50
2018-02-09T23:30:22.583Z,-3.50
2018-02-09T23:32:50.133Z,-3.50
2018-02-09T23:35:17.590Z,-3.60
2018-02-09T23:37:45.058Z,-3.60
2018-02-09T23:40:12.614Z,-3.60
2018-02-09T23:42:40.171Z,-3.60
2018-02-09T23:45:07.726Z,-3.60
2018-02-09T23:47:35.183Z,-3.10
2018-02-09T23:50:02.639Z,-3.10
2018-02-09T23:52:30.094Z,-3.10
2018-02-09T23:54:57.543Z,-3.10
2018-02-09T23:57:25.012Z,-3.10
2018-02-09T23:59:52.575Z,-3.10
